• Join FlightAware (Why Join?)
  • Login
  • US Flag 
10:14PM EDT


 

Airport Tracker/Info


-or-


 

Live Flight TrackerFlight Track Log ✈ PDT4147 ✈ 15-May-2013 ✈ KROA - KCLT

Flight Track Log - Related Links

Times and Time Zones

All times are in EDT time to prevent confusion due to time zone crossing. See the PDT4147 flight status page for this flight to view local times or setup timezone preferences in your user account.

Time Position Orientation Groundspeed Altitude Reporting Facility
EDT Latitude Longitude Course Direction KTS MPH feet Rate Location/Type
04:22PM 37.1625 -79.9847 195° South  Level FlightAware Approximate
04:23PM 37.1121 -80.0023 202° Southwest  Level FlightAware Approximate
04:24PM 37.0628 -80.0235 195° South  Level FlightAware Approximate
04:25PM 37.0115 -80.0333 180° South  Level FlightAware Approximate
04:26PM 36.9592 -80.0328 176° South  Level FlightAware Approximate
04:27PM 36.9070 -80.0287 176° South  Level FlightAware Approximate
04:28PM 36.8548 -80.0247 176° South  Level FlightAware Approximate
04:29PM 36.8026 -80.0207 176° South  Level FlightAware Approximate
04:30PM 36.7504 -80.0167 176° South  Level FlightAware Approximate
04:31PM 36.6982 -80.0155 177° South  Level FlightAware Approximate
04:32PM 36.6459 -80.0122 177° South  Level FlightAware Approximate
04:33PM 36.5937 -80.0090 177° South  Level FlightAware Approximate
04:34PM 36.5415 -80.0057 177° South  Level FlightAware Approximate
04:35PM 36.4892 -80.0024 177° South  Level FlightAware Approximate
04:36PM 36.4371 -79.9984 174° South  Level FlightAware Approximate
04:37PM 36.3850 -79.9919 174° South  Level FlightAware Approximate
04:38PM 36.3330 -79.9854 174° South  Level FlightAware Approximate
04:39PM 36.2808 -79.9812 177° South  Level FlightAware Approximate
04:40PM 36.2286 -79.9781 177° South  Level FlightAware Approximate
04:41PM 36.1764 -79.9751 177° South  Level FlightAware Approximate
04:42PM 36.1241 -79.9720 177° South  Level FlightAware Approximate
04:42PM 35.9008 -80.4242 230° Southwest 268 308 6,800  Level Atlanta Center
04:43PM 36.0719 -79.9689 177° South  Level FlightAware Approximate
04:44PM 36.0245 -79.9796 230° Southwest  Level FlightAware Approximate
04:44PM 35.8164 -80.4614 200° South 259 298 6,000  Level Atlanta Center
04:45PM 35.9907 -80.0289 230° Southwest  Level FlightAware Approximate
04:45PM 35.7544 -80.4819 195° South 250 288 6,000  Level Atlanta Center
04:46PM 35.9568 -80.0782 230° Southwest  Level FlightAware Approximate
04:46PM 35.6881 -80.4950 189° South 242 278 6,100  Level Atlanta Center
04:47PM 35.9230 -80.1274 230° Southwest  Level FlightAware Approximate
04:47PM 35.6114 -80.5136 191° South 243 280 6,100  Level Atlanta Center
04:48PM 35.8811 -80.1882 230° Southwest  Level FlightAware Approximate
04:48PM 35.5553 -80.5261 190° South 241 277 6,100  Level Atlanta Center
04:49PM 35.4878 -80.5675 207° Southwest 237 273 6,000 -60 Descending Atlanta Center
04:50PM 35.4411 -80.6228 224° Southwest 236 272 6,000 -420 Level Atlanta Center
04:51PM 35.4033 -80.6856 234° Southwest 230 265 5,200 -960 Descending Atlanta Center
04:52PM 35.3672 -80.7381 230° Southwest 189 217 4,100 -720 Descending Atlanta Center
04:53PM 35.3331 -80.7828 227° Southwest 161 185 3,800 -600 Descending Atlanta Center
04:54PM 35.2986 -80.8272 226° Southwest 177 204 2,900 -900 Descending Atlanta Center